Time;durP1;ratioP1;P1;durP2;ratioP2;P2;SDS_P1;SDS_P2;PMS_P1;PMS_P2;Temp;Humidity;BMP_temperature;BMP_pressure;BME280_temperature;BME280_humidity;BME280_pressure;Samples;Min_cycle;Max_cycle;Signal;HPM_P1;HPM_P2
2021/07/16 00:00:14;;;;;;;20.55;12.93;;;;;;;23.94;70.12;99200.59;3480795;28;20478;-43
2021/07/16 00:01:56;;;;;;;16.95;13.52;;;;;;;23.96;70.41;99197.88;3480320;28;20049;-43
2021/07/16 00:03:38;;;;;;;18.05;13.70;;;;;;;23.96;70.53;99195.25;3478880;28;20048;-42
2021/07/16 00:05:39;;;;;;;17.63;14.00;;;;;;;23.94;69.93;99200.59;3469263;28;20110;-43
2021/07/16 00:07:21;;;;;;;15.57;13.55;;;;;;;23.93;69.97;99192.75;3477237;28;20099;-44
2021/07/16 00:09:03;;;;;;;20.02;14.35;;;;;;;23.91;69.88;99196.34;3481504;28;20514;-43
2021/07/16 00:10:46;;;;;;;16.90;14.80;;;;;;;23.90;70.06;99199.91;3480009;28;20084;-43
2021/07/16 00:12:27;;;;;;;19.40;13.95;;;;;;;23.89;70.11;99195.56;3478615;28;20050;-43
2021/07/16 00:14:09;;;;;;;20.38;13.90;;;;;;;23.91;69.49;99198.97;3482602;28;20136;-43
2021/07/16 00:15:50;;;;;;;19.35;13.60;;;;;;;23.90;69.59;99194.59;3476966;28;20082;-42
2021/07/16 00:17:31;;;;;;;19.67;13.93;;;;;;;23.92;69.96;99202.47;3482698;28;20053;-43
2021/07/16 00:19:13;;;;;;;18.88;13.35;;;;;;;23.96;70.12;99189.94;3473670;28;20046;-43
2021/07/16 00:20:54;;;;;;;19.80;13.93;;;;;;;23.94;69.54;99194.47;3469771;28;20076;-43
2021/07/16 00:22:35;;;;;;;17.75;13.27;;;;;;;23.96;69.92;99195.25;3479847;28;20159;-42
2021/07/16 00:24:18;;;;;;;19.00;12.85;;;;;;;23.95;70.03;99191.75;3478545;28;20077;-42
2021/07/16 00:26:00;;;;;;;19.60;13.70;;;;;;;23.93;69.03;99198.91;3469123;28;20137;-42
2021/07/16 00:27:42;;;;;;;19.15;13.95;;;;;;;23.92;69.18;99194.53;3473450;28;20148;-42
2021/07/16 00:29:28;;;;;;;20.52;13.93;;;;;;;23.91;69.65;99198.97;3482766;28;20056;-43
2021/07/16 00:31:09;;;;;;;16.50;12.20;;;;;;;23.88;68.46;99190.31;3473035;28;20132;-42
2021/07/16 00:32:50;;;;;;;15.90;12.45;;;;;;;23.87;69.18;99197.41;3469640;28;20081;-43
2021/07/16 00:34:32;;;;;;;16.77;12.45;;;;;;;23.90;69.84;99199.91;3480047;28;20080;-42
2021/07/16 00:36:13;;;;;;;17.02;12.32;;;;;;;23.90;69.26;99204.34;3478144;28;20079;-42
2021/07/16 00:37:54;;;;;;;21.08;13.68;;;;;;;23.87;69.26;99194.78;3469193;28;20146;-42
2021/07/16 00:39:38;;;;;;;17.33;12.07;;;;;;;23.87;69.31;99189.47;3472521;28;20073;-43
2021/07/16 00:41:19;;;;;;;;;;;;;;;23.90;68.66;99194.59;3469320;28;20053;-43
2021/07/16 00:43:01;;;;;;;19.35;13.60;;;;;;;23.90;69.16;99194.59;3477555;28;20214;-43
2021/07/16 00:44:42;;;;;;;18.95;13.77;;;;;;;23.92;69.63;99202.47;3480714;28;20056;-43
2021/07/16 00:46:23;;;;;;;17.95;11.80;;;;;;;23.91;69.82;99204.28;3479037;28;20081;-42
2021/07/16 00:48:05;;;;;;;16.33;13.30;;;;;;;23.91;70.10;99206.06;3477885;28;20144;-43
2021/07/16 00:49:47;;;;;;;17.08;13.60;;;;;;;23.88;71.02;99200.91;3482227;28;20111;-42
2021/07/16 00:51:28;;;;;;;17.52;13.68;;;;;;;23.83;71.04;99194.97;3478147;28;20072;-42
2021/07/16 00:53:10;;;;;;;21.02;12.75;;;;;;;23.77;71.64;99193.50;3472718;28;20053;-43
2021/07/16 00:54:52;;;;;;;19.83;12.90;;;;;;;23.71;71.94;99193.78;3471048;28;20053;-42
2021/07/16 00:56:34;;;;;;;21.85;13.88;;;;;;;23.66;72.38;99190.47;3469498;28;20068;-42
2021/07/16 00:58:15;;;;;;;16.08;13.32;;;;;;;23.60;72.48;99190.78;3479840;28;20091;-43
2021/07/16 00:59:57;;;;;;;17.42;13.52;;;;;;;23.56;72.27;99199.81;3477597;28;20614;-43
2021/07/16 01:01:39;;;;;;;17.33;13.70;;;;;;;23.51;72.42;99190.28;3482219;28;20102;-42
2021/07/16 01:03:21;;;;;;;17.13;12.57;;;;;;;23.47;72.69;99191.38;3477847;28;20076;-43
2021/07/16 01:05:04;;;;;;;16.83;13.02;;;;;;;23.45;72.68;99193.25;3482294;28;20064;-42
2021/07/16 01:06:45;;;;;;;22.80;14.23;;;;;;;23.44;72.92;99194.16;3472632;28;20054;-43
2021/07/16 01:08:26;;;;;;;17.08;13.38;;;;;;;23.45;73.04;99192.38;3469410;28;20053;-44
2021/07/16 01:10:10;;;;;;;16.77;13.23;;;;;;;23.47;73.16;99195.81;3470954;28;20491;-42
2021/07/16 01:11:51;;;;;;;17.08;12.95;;;;;;;23.45;72.49;99195.03;3471423;28;20227;-42
2021/07/16 01:13:34;;;;;;;19.92;14.35;;;;;;;23.44;72.72;99188.88;3482268;28;20464;-42
2021/07/16 01:15:15;;;;;;;19.35;13.05;;;;;;;23.44;72.12;99183.56;3477941;28;20135;-42
2021/07/16 01:16:58;;;;;;;21.23;14.15;;;;;;;23.44;71.48;99186.22;3481930;28;20103;-42
2021/07/16 01:18:40;;;;;;;24.92;13.77;;;;;;;23.44;72.05;99191.50;3477771;28;20083;-43
2021/07/16 01:20:25;;;;;;;16.88;12.55;;;;;;;23.46;71.27;99189.66;3480121;28;20186;-43
2021/07/16 01:22:08;;;;;;;16.55;12.30;;;;;;;23.46;71.20;99192.28;3481650;28;20538;-42
2021/07/16 01:23:51;;;;;;;;;;;;;;;23.46;71.08;99186.16;3478923;28;20212;-42
2021/07/16 01:25:32;;;;;;;18.63;12.73;;;;;;;23.44;70.80;99186.22;3468537;28;19971;-42
2021/07/16 01:27:14;;;;;;;18.83;12.43;;;;;;;23.43;70.69;99183.63;3474661;28;20053;-42
2021/07/16 01:28:57;;;;;;;18.45;12.73;;;;;;;23.43;71.03;99187.16;3481713;28;20085;-42
2021/07/16 01:30:39;;;;;;;19.30;12.35;;;;;;;23.43;70.90;99183.63;3471479;28;20056;-42
2021/07/16 01:32:21;;;;;;;17.33;12.77;;;;;;;23.45;71.44;99172.06;3470086;28;20087;-42
2021/07/16 01:34:02;;;;;;;16.17;12.27;;;;;;;23.47;70.44;99175.50;3480419;28;20056;-42
2021/07/16 01:35:44;;;;;;;16.50;12.77;;;;;;;23.48;70.35;99173.69;3478280;28;20084;-42
2021/07/16 01:37:25;;;;;;;15.05;12.60;;;;;;;23.48;70.52;99163.97;3468339;28;20502;-43
2021/07/16 01:39:07;;;;;;;14.15;12.18;;;;;;;23.48;70.08;99169.28;3470800;28;20136;-42
2021/07/16 01:40:48;;;;;;;18.65;13.00;;;;;;;23.49;70.21;99162.19;3468416;28;20108;-43
2021/07/16 01:42:33;;;;;;;18.00;11.68;;;;;;;23.51;70.16;99161.16;3471454;28;20080;-42
2021/07/16 01:44:14;;;;;;;40.30;13.45;;;;;;;23.55;70.62;99161.03;3469188;28;20056;-42
2021/07/16 01:45:55;;;;;;;15.88;11.60;;;;;;;23.55;70.96;99156.56;3481679;28;20087;-42
2021/07/16 01:47:38;;;;;;;14.85;11.88;;;;;;;23.56;71.19;99154.81;3477563;28;20069;-43
2021/07/16 01:49:20;;;;;;;17.13;12.38;;;;;;;23.55;70.93;99153.09;3482207;28;20072;-42
2021/07/16 01:51:01;;;;;;;15.68;12.55;;;;;;;23.53;70.91;99150.50;3477515;28;20083;-42
2021/07/16 01:52:43;;;;;;;15.38;12.35;;;;;;;23.52;70.10;99151.47;3476054;28;20546;-43
2021/07/16 01:54:25;;;;;;;13.63;11.85;;;;;;;23.50;69.70;99148.00;3470120;28;20087;-42
2021/07/16 01:56:07;;;;;;;16.27;12.20;;;;;;;23.50;70.23;99155.94;3470147;28;20161;-42
2021/07/16 01:57:51;;;;;;;15.50;12.35;;;;;;;23.49;69.86;99155.09;3469686;28;20426;-42
2021/07/16 01:59:32;;;;;;;13.90;12.15;;;;;;;23.49;70.21;99149.78;3474280;28;20148;-42
2021/07/16 02:01:14;;;;;;;16.02;12.07;;;;;;;23.48;70.00;99149.88;3484380;28;20072;-43
2021/07/16 02:02:58;;;;;;;15.57;11.65;;;;;;;23.46;70.13;99149.09;3479762;28;20045;-43
2021/07/16 02:04:40;;;;;;;19.25;11.98;;;;;;;23.42;69.64;99148.38;3483887;28;20053;-43
2021/07/16 02:06:21;;;;;;;18.42;12.15;;;;;;;23.39;70.13;99142.38;3481240;28;20481;-42
2021/07/16 02:08:06;;;;;;;16.00;11.25;;;;;;;23.36;70.32;99145.16;3481878;28;21064;-43
2021/07/16 02:09:48;;;;;;;15.75;11.43;;;;;;;23.33;70.23;99149.66;3470383;28;20107;-43
2021/07/16 02:11:29;;;;;;;17.40;11.75;;;;;;;23.29;70.39;99150.75;3474852;28;20500;-42
2021/07/16 02:13:11;;;;;;;15.90;11.65;;;;;;;23.28;70.29;99145.53;3484121;28;20076;-42
2021/07/16 02:14:52;;;;;;;14.63;11.32;;;;;;;23.24;70.26;99150.06;3475437;28;20054;-43
2021/07/16 02:16:33;;;;;;;14.23;11.05;;;;;;;23.25;70.35;99143.81;3471456;28;20053;-43
2021/07/16 02:18:15;;;;;;;15.75;11.38;;;;;;;23.26;70.22;99150.00;3480673;28;20057;-43
2021/07/16 02:19:56;;;;;;;15.63;11.50;;;;;;;23.24;70.61;99144.78;3480878;28;20422;-42
2021/07/16 02:21:38;;;;;;;15.32;11.05;;;;;;;23.23;70.56;99135.09;3470708;28;20058;-43
2021/07/16 02:23:21;;;;;;;14.45;11.27;;;;;;;23.23;70.48;99136.91;3473674;28;20483;-42
2021/07/16 02:25:04;;;;;;;13.40;10.63;;;;;;;23.22;70.70;99135.19;3470321;28;20573;-42
2021/07/16 02:26:45;;;;;;;15.70;11.77;;;;;;;23.22;70.59;99129.88;3472724;28;20478;-42
2021/07/16 02:28:29;;;;;;;17.42;11.25;;;;;;;23.21;70.49;99134.31;3471121;28;20302;-42
2021/07/16 02:30:11;;;;;;;16.38;11.85;;;;;;;23.23;70.64;99126.31;3480817;28;20111;-42
2021/07/16 02:31:52;;;;;;;13.68;10.95;;;;;;;23.21;70.64;99128.19;3480969;28;20079;-42
2021/07/16 02:33:34;;;;;;;22.45;11.68;;;;;;;23.18;70.60;99129.16;3471343;28;20045;-42
2021/07/16 02:35:17;;;;;;;13.70;11.50;;;;;;;23.20;70.76;99131.75;3474899;28;20155;-42
2021/07/16 02:36:58;;;;;;;13.07;11.65;;;;;;;23.20;70.62;99123.81;3483930;28;20099;-42
2021/07/16 02:38:39;;;;;;;17.23;11.63;;;;;;;23.21;70.39;99125.53;3479515;28;20085;-42
2021/07/16 02:40:21;;;;;;;13.07;10.43;;;;;;;23.21;70.75;99128.19;3482640;28;20057;-42
2021/07/16 02:42:03;;;;;;;13.70;11.80;;;;;;;23.21;70.37;99125.53;3472647;28;20077;-41
2021/07/16 02:43:44;;;;;;;17.58;11.20;;;;;;;23.20;70.70;99127.34;3473590;28;20072;-42
2021/07/16 02:45:26;;;;;;;15.52;11.20;;;;;;;23.23;70.26;99128.97;3470927;28;20145;-42
2021/07/16 02:47:07;;;;;;;13.85;10.68;;;;;;;23.24;70.33;99131.53;3472433;28;20139;-42
2021/07/16 02:48:49;;;;;;;15.77;11.05;;;;;;;23.26;70.14;99134.97;3469975;28;20077;-42
2021/07/16 02:50:33;;;;;;;16.15;11.75;;;;;;;23.26;70.26;99134.97;3472358;28;20588;-42
2021/07/16 02:52:18;;;;;;;15.13;11.32;;;;;;;23.27;70.09;99136.72;3470107;28;20057;-42
2021/07/16 02:53:59;;;;;;;16.33;10.93;;;;;;;23.29;69.64;99131.38;3481424;28;20087;-42
2021/07/16 02:55:42;;;;;;;17.85;10.68;;;;;;;23.29;69.71;99124.28;3479289;28;20053;-42
2021/07/16 02:57:23;;;;;;;12.67;10.00;;;;;;;23.34;69.70;99126.69;3483650;28;20076;-42
2021/07/16 02:59:06;;;;;;;13.27;10.63;;;;;;;23.38;69.58;99122.09;3479268;28;20568;-42
2021/07/16 03:00:48;;;;;;;12.93;9.93;;;;;;;23.43;69.56;99128.91;3483520;28;20509;-42
2021/07/16 03:02:30;;;;;;;16.63;9.70;;;;;;;23.45;68.50;99127.06;3479059;28;20074;-42
2021/07/16 03:04:11;;;;;;;12.00;10.57;;;;;;;23.53;69.58;99131.97;3482006;28;20056;-42
2021/07/16 03:05:53;;;;;;;15.30;10.30;;;;;;;23.59;69.84;99131.69;3471945;28;20087;-43
2021/07/16 03:07:35;;;;;;;14.10;9.98;;;;;;;23.62;68.72;99133.31;3472305;28;20053;-42
2021/07/16 03:09:16;;;;;;;14.10;9.82;;;;;;;23.68;69.42;99138.34;3468847;28;20147;-42
2021/07/16 03:10:58;;;;;;;13.93;10.27;;;;;;;23.71;68.34;99133.75;3473981;28;20080;-42
2021/07/16 03:12:40;;;;;;;14.27;9.90;;;;;;;23.76;68.21;99136.16;3469914;28;20057;-42
2021/07/16 03:14:21;;;;;;;12.38;9.73;;;;;;;23.79;67.37;99133.34;3473295;28;20073;-42
2021/07/16 03:16:03;;;;;;;12.80;9.90;;;;;;;23.86;67.95;99140.06;3470751;28;20106;-42
2021/07/16 03:17:45;;;;;;;11.75;9.32;;;;;;;23.91;67.74;99145.16;3471611;28;20439;-43
2021/07/16 03:19:26;;;;;;;11.23;10.07;;;;;;;23.95;67.35;99144.03;3472231;28;20511;-42
2021/07/16 03:21:07;;;;;;;19.83;9.57;;;;;;;23.99;67.14;99142.94;3469904;28;20080;-42
2021/07/16 03:22:49;;;;;;;14.13;9.60;;;;;;;24.02;65.69;99150.75;3473019;28;20073;-42
2021/07/16 03:24:30;;;;;;;15.93;9.73;;;;;;;24.03;65.68;99149.84;3469863;28;20136;-42
2021/07/16 03:26:12;;;;;;;14.68;9.43;;;;;;;24.09;65.82;99152.19;3477491;28;20087;-42
2021/07/16 03:27:54;;;;;;;15.93;9.60;;;;;;;24.14;66.33;99153.78;3481310;28;20514;-42
2021/07/16 03:29:35;;;;;;;12.85;9.88;;;;;;;24.18;65.68;99153.53;3482814;28;20073;-42
2021/07/16 03:31:16;;;;;;;13.27;9.25;;;;;;;24.24;66.08;99158.53;3477587;28;20502;-42
2021/07/16 03:32:58;;;;;;;15.38;9.48;;;;;;;24.29;66.81;99160.94;3470087;28;20057;-42
2021/07/16 03:34:40;;;;;;;13.32;9.85;;;;;;;24.34;66.64;99166.84;3471910;28;20083;-42
2021/07/16 03:36:21;;;;;;;22.80;10.40;;;;;;;24.38;66.56;99164.91;3469557;28;20056;-42
2021/07/16 03:38:03;;;;;;;14.68;10.05;;;;;;;24.41;66.06;99165.59;3473054;28;20525;-42
2021/07/16 03:39:45;;;;;;;13.82;9.10;;;;;;;24.45;65.77;99164.53;3469012;28;20053;-42
2021/07/16 03:41:27;;;;;;;15.75;9.55;;;;;;;24.50;65.70;99166.06;3480836;28;20565;-42
2021/07/16 03:43:08;;;;;;;12.98;9.27;;;;;;;24.53;65.71;99166.78;3478546;28;20560;-42
2021/07/16 03:44:50;;;;;;;12.20;8.95;;;;;;;24.61;65.47;99171.66;3483061;28;20218;-42
2021/07/16 03:46:31;;;;;;;17.92;9.80;;;;;;;24.67;64.95;99174.00;3478940;28;20072;-42
2021/07/16 03:48:12;;;;;;;14.80;9.27;;;;;;;24.71;64.40;99172.91;3483112;28;20060;-42
2021/07/16 03:49:53;;;;;;;16.40;8.85;;;;;;;24.77;64.37;99174.38;3480970;28;20089;-42
2021/07/16 03:51:36;;;;;;;18.20;9.50;;;;;;;24.80;64.05;99179.53;3478856;28;20045;-42
2021/07/16 03:53:18;;;;;;;20.73;9.37;;;;;;;24.83;64.11;99172.28;3477604;28;20150;-42
2021/07/16 03:54:59;;;;;;;19.60;9.27;;;;;;;24.87;63.12;99170.34;3475069;28;20521;-42
2021/07/16 03:56:41;;;;;;;16.88;9.57;;;;;;;24.93;63.60;99169.13;3469348;28;20049;-42
2021/07/16 03:58:22;;;;;;;11.57;8.48;;;;;;;24.99;62.47;99176.78;3477781;28;20072;-42
2021/07/16 04:00:05;;;;;;;15.57;8.95;;;;;;;25.02;62.23;99166.88;3481111;28;20450;-42
2021/07/16 04:01:48;;;;;;;20.92;10.25;;;;;;;25.08;62.42;99173.63;3480745;28;20080;-42
2021/07/16 04:03:29;;;;;;;12.57;9.27;;;;;;;25.13;62.28;99174.25;3478441;28;20055;-42
2021/07/16 04:05:12;;;;;;;17.83;9.68;;;;;;;25.19;62.30;99173.91;3483034;28;20052;-42
2021/07/16 04:06:54;;;;;;;15.63;9.23;;;;;;;25.28;61.90;99182.31;3474494;28;20045;-42
2021/07/16 04:08:37;;;;;;;21.45;9.80;;;;;;;25.36;62.13;99172.97;3469340;28;20053;-42
2021/07/16 04:10:20;;;;;;;13.02;9.18;;;;;;;25.42;61.66;99179.75;3472554;28;20548;-42
2021/07/16 04:12:07;;;;;;;18.55;9.65;;;;;;;25.49;61.72;99175.81;3470856;28;20080;-42
2021/07/16 04:13:48;;;;;;;11.95;8.30;;;;;;;25.54;61.67;99172.94;3469159;28;20335;-42
2021/07/16 04:15:30;;;;;;;23.63;9.18;;;;;;;25.61;62.08;99182.28;3471986;28;20050;-42
2021/07/16 04:17:13;;;;;;;14.50;8.98;;;;;;;25.70;61.29;99179.09;3482755;28;20053;-42
2021/07/16 04:18:54;;;;;;;23.02;9.00;;;;;;;25.74;60.99;99180.66;3478399;28;20143;-42
2021/07/16 04:20:37;;;;;;;19.83;9.25;;;;;;;25.81;61.77;99181.13;3482244;28;20597;-43
2021/07/16 04:22:21;;;;;;;14.07;8.93;;;;;;;25.87;61.06;99182.63;3479465;28;20087;-42
2021/07/16 04:24:03;;;;;;;18.33;8.90;;;;;;;25.92;60.59;99177.88;3478707;28;20163;-42
2021/07/16 04:25:44;;;;;;;18.27;9.35;;;;;;;25.99;59.86;99176.59;3482280;28;20115;-42
2021/07/16 04:27:27;;;;;;;23.60;10.60;;;;;;;26.04;60.66;99176.31;3478184;28;20071;-42
2021/07/16 04:29:08;;;;;;;14.07;9.13;;;;;;;26.12;60.80;99182.03;3482637;28;20143;-43
2021/07/16 04:30:49;;;;;;;19.63;9.35;;;;;;;26.20;60.31;99178.91;3478025;28;20140;-42
2021/07/16 04:32:31;;;;;;;17.58;8.73;;;;;;;26.25;60.54;99183.06;3481692;28;20429;-42
2021/07/16 04:34:12;;;;;;;13.98;9.00;;;;;;;26.32;59.87;99183.56;3469692;28;20089;-42
2021/07/16 04:35:53;;;;;;;13.77;9.30;;;;;;;26.39;59.94;99179.56;3471582;28;20056;-42
2021/07/16 04:37:35;;;;;;;18.27;9.35;;;;;;;26.46;59.17;99188.91;3468904;28;20087;-42
2021/07/16 04:39:16;;;;;;;12.15;8.65;;;;;;;26.51;58.42;99184.16;3472679;28;20088;-42
2021/07/16 04:40:58;;;;;;;20.77;9.07;;;;;;;26.58;58.40;99183.81;3468895;28;20160;-42
2021/07/16 04:42:39;;;;;;;17.63;9.23;;;;;;;26.62;58.58;99188.00;3478660;28;20144;-42
2021/07/16 04:44:21;;;;;;;14.75;8.50;;;;;;;26.65;58.92;99186.00;3480600;28;20083;-42
2021/07/16 04:46:03;;;;;;;15.25;9.13;;;;;;;26.66;58.33;99177.09;3480412;28;20080;-42
2021/07/16 04:47:45;;;;;;;14.52;8.65;;;;;;;26.72;57.94;99186.50;3479397;28;20106;-42
2021/07/16 04:49:27;;;;;;;19.02;9.13;;;;;;;26.78;58.60;99185.25;3468972;28;20148;-42
2021/07/16 04:51:09;;;;;;;18.08;9.18;;;;;;;26.86;57.46;99185.66;3475463;28;20076;-42
2021/07/16 04:52:51;;;;;;;16.15;8.75;;;;;;;26.90;57.86;99181.84;3475179;28;20080;-42
2021/07/16 04:54:32;;;;;;;14.82;8.35;;;;;;;26.97;57.50;99179.69;3472163;28;20051;-42
2021/07/16 04:56:13;;;;;;;24.92;10.13;;;;;;;27.03;56.49;99190.84;3470575;28;20079;-42
2021/07/16 04:57:55;;;;;;;23.80;9.45;;;;;;;27.07;57.02;99181.69;3480136;28;20091;-43
2021/07/16 04:59:37;;;;;;;10.45;8.50;;;;;;;27.13;56.61;99182.25;3477358;28;20140;-42
2021/07/16 05:01:21;;;;;;;25.17;9.40;;;;;;;27.18;56.37;99182.84;3468769;28;20053;-43
2021/07/16 05:03:03;;;;;;;15.05;9.23;;;;;;;27.22;55.82;99192.31;3471875;28;20530;-44
2021/07/16 05:04:44;;;;;;;16.17;8.88;;;;;;;27.30;56.45;99195.38;3469088;28;20064;-42
2021/07/16 05:06:26;;;;;;;18.60;9.32;;;;;;;27.39;56.21;99189.47;3471798;28;20046;-42
2021/07/16 05:08:07;;;;;;;19.27;8.40;;;;;;;27.53;56.15;99191.25;3470552;28;20053;-42
2021/07/16 05:09:49;;;;;;;18.05;8.68;;;;;;;27.67;55.15;99193.91;3468562;28;20430;-43
2021/07/16 05:11:30;;;;;;;23.00;9.70;;;;;;;27.79;55.50;99188.72;3472101;28;20057;-42
2021/07/16 05:13:12;;;;;;;16.20;9.10;;;;;;;27.93;54.53;99191.38;3468473;28;20053;-42
2021/07/16 05:14:54;;;;;;;12.45;8.02;;;;;;;28.05;54.27;99193.22;3474083;28;20064;-43
2021/07/16 05:16:35;;;;;;;17.88;9.40;;;;;;;28.18;54.13;99184.41;3481918;28;20080;-43
2021/07/16 05:18:17;;;;;;;20.52;9.45;;;;;;;28.19;52.77;99186.09;3478022;28;20493;-42
2021/07/16 05:19:58;;;;;;;17.33;9.20;;;;;;;28.16;52.89;99184.50;3479913;28;20048;-42
2021/07/16 05:21:40;;;;;;;16.67;8.48;;;;;;;28.19;53.55;99180.75;3469289;28;20073;-43
2021/07/16 05:23:21;;;;;;;16.90;9.23;;;;;;;28.24;53.06;99181.31;3471376;28;20077;-42
2021/07/16 05:25:05;;;;;;;21.00;8.80;;;;;;;28.33;53.53;99182.53;3482329;28;20080;-43
2021/07/16 05:26:46;;;;;;;19.17;8.63;;;;;;;28.47;53.64;99182.44;3476642;28;20048;-44
2021/07/16 05:28:28;;;;;;;16.48;8.73;;;;;;;28.56;52.09;99180.97;3481819;28;21908;-43
2021/07/16 05:30:10;;;;;;;33.70;9.75;;;;;;;28.65;52.18;99174.13;3471611;28;20057;-43
2021/07/16 05:31:52;;;;;;;14.77;9.40;;;;;;;28.70;52.20;99175.53;3470341;28;20136;-43
2021/07/16 05:33:34;;;;;;;18.85;8.57;;;;;;;28.74;51.56;99174.38;3482302;28;20057;-43
2021/07/16 05:35:15;;;;;;;17.15;8.43;;;;;;;28.79;52.49;99174.88;3480197;28;20135;-44
2021/07/16 05:36:57;;;;;;;18.65;8.20;;;;;;;28.79;53.39;99176.69;3484614;28;20048;-44
2021/07/16 05:38:38;;;;;;;19.73;9.63;;;;;;;28.85;52.84;99176.28;3480329;28;20395;-44
2021/07/16 05:40:20;;;;;;;14.43;8.38;;;;;;;29.01;53.09;99183.22;3484163;28;20075;-43
2021/07/16 05:42:03;;;;;;;15.50;9.60;;;;;;;29.09;51.30;99180.88;3474102;28;20096;-43
2021/07/16 05:43:45;;;;;;;16.08;9.20;;;;;;;29.14;51.42;99184.94;3472264;28;20479;-43
2021/07/16 05:45:27;;;;;;;18.17;9.15;;;;;;;29.22;51.07;99186.19;3471741;28;20145;-44
2021/07/16 05:47:09;;;;;;;12.45;9.18;;;;;;;29.29;51.25;99185.66;3473911;28;20111;-43
2021/07/16 05:48:50;;;;;;;15.75;8.88;;;;;;;29.38;50.81;99184.16;3484414;28;20187;-43
2021/07/16 05:50:32;;;;;;;15.57;8.57;;;;;;;29.45;49.93;99174.72;3476862;28;20546;-43
2021/07/16 05:52:14;;;;;;;13.68;8.98;;;;;;;29.55;50.63;99182.94;3469649;28;20137;-43
2021/07/16 05:53:55;;;;;;;15.85;9.65;;;;;;;29.66;50.13;99182.16;3473410;28;20487;-43
2021/07/16 05:55:36;;;;;;;18.63;8.88;;;;;;;29.76;49.72;99175.19;3472250;28;20108;-44
2021/07/16 05:57:18;;;;;;;19.52;9.23;;;;;;;29.91;49.48;99182.06;3482647;28;20140;-44
2021/07/16 05:59:00;;;;;;;15.65;8.63;;;;;;;30.05;49.08;99188.19;3479702;28;20080;-44
2021/07/16 06:00:41;;;;;;;17.58;8.80;;;;;;;30.12;49.09;99184.97;3484379;28;20060;-43
2021/07/16 06:02:23;;;;;;;12.73;8.77;;;;;;;30.16;48.02;99182.09;3475582;28;20058;-45
2021/07/16 06:04:09;;;;;;;14.13;8.55;;;;;;;30.20;48.03;99180.88;3470277;28;20057;-45
2021/07/16 06:05:50;;;;;;;19.30;8.32;;;;;;;30.24;47.66;99185.03;3472126;28;20081;-44
2021/07/16 06:07:32;;;;;;;11.80;8.18;;;;;;;30.20;48.26;99183.56;3471931;28;20045;-44
2021/07/16 06:09:13;;;;;;;18.65;8.45;;;;;;;30.24;47.88;99190.38;3482937;28;20122;-44
2021/07/16 06:10:54;;;;;;;17.90;9.13;;;;;;;30.25;47.48;99192.09;3479945;28;20049;-44
2021/07/16 06:12:36;;;;;;;16.75;9.90;;;;;;;30.27;47.77;99185.66;3484047;28;20144;-44
2021/07/16 06:14:18;;;;;;;24.52;9.80;;;;;;;30.33;48.35;99180.81;3479729;28;20041;-44
2021/07/16 06:15:59;;;;;;;22.20;9.32;;;;;;;30.42;48.53;99191.69;3483870;28;20073;-44
2021/07/16 06:17:41;;;;;;;22.48;9.32;;;;;;;30.56;48.28;99187.94;3473151;28;20049;-43
2021/07/16 06:19:23;;;;;;;12.85;9.15;;;;;;;30.62;47.08;99179.41;3472728;28;20045;-44
2021/07/16 06:21:06;;;;;;;17.00;9.05;;;;;;;30.70;47.26;99184.16;3470100;28;20514;-45
2021/07/16 06:22:47;;;;;;;21.20;9.85;;;;;;;30.82;46.79;99179.72;3473638;28;20048;-44
2021/07/16 06:24:30;;;;;;;13.15;8.88;;;;;;;30.98;46.97;99182.88;3470710;28;20073;-44
2021/07/16 06:26:11;;;;;;;16.70;9.93;;;;;;;31.13;46.56;99180.84;3474131;28;20296;-44
2021/07/16 06:27:52;;;;;;;16.35;10.30;;;;;;;31.25;45.80;99179.03;3471042;28;20060;-44
2021/07/16 06:29:35;;;;;;;22.50;9.45;;;;;;;31.35;45.43;99171.94;3479776;28;20049;-44
2021/07/16 06:31:16;;;;;;;14.20;9.20;;;;;;;31.46;46.37;99179.16;3482062;28;20049;-44
2021/07/16 06:32:57;;;;;;;15.65;9.43;;;;;;;31.53;45.29;99175.00;3469889;28;20049;-46
2021/07/16 06:34:39;;;;;;;15.75;9.52;;;;;;;31.62;45.88;99181.44;3473816;28;20529;-45
2021/07/16 06:36:20;;;;;;;15.82;9.63;;;;;;;31.71;45.09;99186.03;3484060;28;20077;-44
2021/07/16 06:38:02;;;;;;;15.40;9.52;;;;;;;31.77;44.16;99184.69;3479357;28;20048;-45
2021/07/16 06:39:43;;;;;;;15.20;9.40;;;;;;;31.82;44.51;99182.47;3483671;28;20087;-44
2021/07/16 06:41:24;;;;;;;13.57;9.60;;;;;;;31.95;44.91;99191.22;3472978;28;20049;-44
2021/07/16 06:43:09;;;;;;;13.00;9.75;;;;;;;31.98;44.29;99188.28;3471660;28;20084;-44
2021/07/16 06:44:51;;;;;;;15.07;9.40;;;;;;;32.08;44.21;99185.72;3481593;28;20076;-44
2021/07/16 06:46:33;;;;;;;18.73;10.40;;;;;;;32.15;44.11;99188.72;3478259;28;20072;-44
2021/07/16 06:48:14;;;;;;;13.43;9.73;;;;;;;32.19;44.08;99188.34;3483970;28;20087;-44
2021/07/16 06:49:55;;;;;;;19.13;9.85;;;;;;;32.30;43.40;99192.78;3479169;28;20485;-45
2021/07/16 06:51:37;;;;;;;15.80;10.10;;;;;;;32.38;43.52;99186.78;3482648;28;20141;-45
2021/07/16 06:53:18;;;;;;;13.45;9.88;;;;;;;32.38;44.05;99190.31;3470729;28;20045;-44
2021/07/16 06:55:00;;;;;;;20.98;10.50;;;;;;;32.40;42.54;99183.94;3473378;28;20059;-44
2021/07/16 06:56:41;;;;;;;14.55;10.05;;;;;;;32.51;44.37;99183.94;3469758;28;20491;-45
2021/07/16 06:58:23;;;;;;;28.50;11.30;;;;;;;32.55;44.06;99183.56;3473575;28;20068;-45
2021/07/16 07:00:06;;;;;;;19.88;10.48;;;;;;;32.66;42.29;99187.13;3483790;28;20056;-44
2021/07/16 07:01:48;;;;;;;14.27;10.32;;;;;;;32.77;44.53;99186.19;3474407;28;20095;-45
2021/07/16 07:03:29;;;;;;;18.08;11.10;;;;;;;32.87;42.55;99182.59;3470661;28;20140;-44
2021/07/16 07:05:13;;;;;;;14.52;10.43;;;;;;;32.96;41.95;99188.16;3482193;28;20052;-44
2021/07/16 07:06:54;;;;;;;21.80;11.35;;;;;;;33.04;42.66;99191.91;3480228;28;20081;-45
2021/07/16 07:08:36;;;;;;;24.02;11.68;;;;;;;33.13;42.86;99191.09;3469945;28;20081;-44
2021/07/16 07:10:18;;;;;;;19.75;12.02;;;;;;;33.24;42.94;99184.75;3475867;28;20079;-45
2021/07/16 07:11:59;;;;;;;16.80;12.10;;;;;;;33.29;41.31;99189.72;3483202;28;20092;-45
2021/07/16 07:13:40;;;;;;;17.08;11.18;;;;;;;33.37;41.45;99187.22;3479480;28;20083;-44
2021/07/16 07:15:23;;;;;;;22.08;12.07;;;;;;;33.36;40.91;99187.34;3481878;28;20049;-45
2021/07/16 07:17:04;;;;;;;21.40;12.02;;;;;;;33.33;41.05;99183.09;3481031;28;20053;-45
2021/07/16 07:18:46;;;;;;;18.48;11.63;;;;;;;33.42;42.55;99186.78;3479694;28;20404;-45
2021/07/16 07:20:27;;;;;;;17.65;11.40;;;;;;;33.46;42.13;99196.31;3469838;28;20527;-44
2021/07/16 07:22:09;;;;;;;16.20;11.27;;;;;;;33.57;41.91;99193.50;3475614;28;20519;-47
2021/07/16 07:23:51;;;;;;;18.13;10.88;;;;;;;33.62;41.59;99199.34;3482920;28;20500;-45
2021/07/16 07:25:32;;;;;;;17.63;12.07;;;;;;;33.68;41.42;99190.75;3479370;28;20600;-46
2021/07/16 07:27:13;;;;;;;15.02;11.90;;;;;;;33.74;41.80;99189.31;3481520;28;20076;-45
2021/07/16 07:28:54;;;;;;;21.92;12.43;;;;;;;33.81;41.26;99190.47;3480981;28;20084;-44
2021/07/16 07:30:37;;;;;;;15.65;11.57;;;;;;;33.84;41.22;99182.13;3481039;28;20565;-44
2021/07/16 07:32:20;;;;;;;21.45;12.65;;;;;;;33.90;41.34;99194.16;3469527;28;20064;-45
2021/07/16 07:34:01;;;;;;;14.63;11.50;;;;;;;33.96;40.04;99192.75;3472003;28;20068;-45
2021/07/16 07:35:42;;;;;;;15.20;11.95;;;;;;;33.96;40.67;99190.06;3469148;28;20502;-45
2021/07/16 07:37:24;;;;;;;13.38;12.05;;;;;;;34.06;42.20;99199.00;3479113;28;20045;-45
2021/07/16 07:39:05;;;;;;;18.08;12.63;;;;;;;34.05;41.29;99195.44;3481469;28;20060;-45
2021/07/16 07:40:46;;;;;;;25.55;13.45;;;;;;;34.13;40.79;99194.78;3470411;28;20123;-46
2021/07/16 07:42:28;;;;;;;21.05;12.00;;;;;;;34.17;40.03;99196.19;3471988;28;20469;-45
2021/07/16 07:44:09;;;;;;;16.48;12.95;;;;;;;34.30;41.59;99198.56;3483045;28;20514;-44
2021/07/16 07:45:51;;;;;;;16.73;11.90;;;;;;;34.33;42.30;99203.69;3477503;28;20138;-45
2021/07/16 07:47:33;;;;;;;18.17;12.10;;;;;;;34.44;40.57;99200.88;3483324;28;20052;-44
2021/07/16 07:49:17;;;;;;;18.90;13.80;;;;;;;34.46;40.27;99200.69;3481284;28;20159;-44
2021/07/16 07:50:58;;;;;;;17.55;13.07;;;;;;;34.59;40.74;99203.09;3481047;28;20180;-44